Friday, October 19, 2018, 11:30 AM EDT
Back to Local

KMLT, Millinocket Municipal Airport

Location: Millinocket, ME, United States Lat: 45.65
Local Time: 11:30 AM EDT (15:30 GMT) Lon: -68.7
Time Zone: US/Eastern Elev: 406 ft

Show me the last for .
Show Decoded

2018-10-19 10:53 METAR KMLT 191453Z AUTO VRB03KT 10SM BKN035 OVC043 02/M05 A3006 RMK AO2 SLP189
                 T00221050 58020 =
2018-10-19 09:53 METAR KMLT 191353Z AUTO 00000KT 10SM OVC033 01/M04 A3009 RMK AO2 SLP197
                 T00061044 =
2018-10-19 08:53 METAR KMLT 191253Z AUTO 00000KT 10SM OVC033 00/M04 A3011 RMK AO2 SLP204
                 T00001044 =
2018-10-19 07:53 METAR KMLT 191153Z AUTO 00000KT 10SM OVC039 M01/M05 A3012 RMK AO2 SNB09E18
                 SLP210 P0000 60000 T10061050 10000 21006 53001 =
2018-10-19 06:53 METAR KMLT 191053Z AUTO 00000KT 10SM OVC045 M01/M06 A3011 RMK AO2 SLP207
                 T10061061 =
2018-10-19 05:53 METAR KMLT 190953Z AUTO 00000KT 10SM FEW029 OVC048 M01/M07 A3011 RMK AO2 SLP207
                 T10061067 =
2018-10-19 04:53 METAR KMLT 190853Z AUTO 00000KT 10SM FEW036 OVC055 M01/M07 A3012 RMK AO2 SLP208
                 T10061072 50000 =
2018-10-19 03:53 METAR KMLT 190753Z AUTO 29009KT 10SM OVC060 00/M09 A3012 RMK AO2 SLP208
                 T00001089 =
2018-10-19 02:53 METAR KMLT 190653Z AUTO 28006KT 10SM CLR M01/M09 A3012 RMK AO2 SLP209 T10061094
                 =
2018-10-19 01:53 METAR KMLT 190553Z AUTO 29005KT 10SM CLR M01/M09 A3012 RMK AO2 SLP208 T10061094
                 10006 21017 51003 =
2018-10-19 00:53 METAR KMLT 190453Z AUTO 29006KT 10SM CLR M01/M09 A3011 RMK AO2 SLP207 T10061094
                 400441017 =
2018-10-18 23:53 METAR KMLT 190353Z AUTO 00000KT 10SM CLR M01/M09 A3012 RMK AO2 SLP207 T10111094
                 =
2018-10-18 22:53 METAR KMLT 190253Z AUTO 29006KT 10SM CLR 00/M09 A3011 RMK AO2 SLP205 T00001094
                 50007 =
2018-10-18 21:53 METAR KMLT 190153Z AUTO 28004G14KT 10SM CLR 01/M10 A3012 RMK AO2 SLP207
                 T00061100 =
2018-10-18 20:53 METAR KMLT 190053Z AUTO 29010G18KT 10SM CLR 01/M10 A3011 RMK AO2 SLP204
                 T00061100 =
2018-10-18 19:53 METAR KMLT 182353Z AUTO 29008KT 10SM CLR 01/M09 A3009 RMK AO2 SLP198 60000
                 T00061089 10044 20000 51026 =
2018-10-18 18:53 METAR KMLT 182253Z AUTO 30010G18KT 10SM CLR 01/M08 A3009 RMK AO2 SLP197
                 T00111083 =
2018-10-18 17:53 METAR KMLT 182153Z AUTO 30013G21KT 10SM CLR 02/M09 A3005 RMK AO2 PK WND
                 33032/2130 SLP185 T00171089 =
2018-10-18 16:53 METAR KMLT 182053Z AUTO 32018G27KT 10SM BKN050 BKN060 02/M06 A3001 RMK AO2 PK
                 WND 30035/2027 SLP172 60000 T00171061 53016 =
2018-10-18 15:53 METAR KMLT 181953Z AUTO 31023G32KT 10SM BKN055 BKN070 02/M07 A3000 RMK AO2 PK
                 WND 31033/1917 SNB33E43 SLP166 P0000 T00171072 =
2018-10-18 14:53 METAR KMLT 181853Z AUTO 31020G30KT 10SM BKN055 BKN075 04/M08 A2997 RMK AO2 PK
                 WND 30035/1823 SLP159 T00391083 =
2018-10-18 13:53 METAR KMLT 181753Z AUTO 32021G32KT 10SM BKN065 OVC080 03/M09 A2996 RMK AO2 PK
                 WND 30038/1718 SNB29E38 SLP155 P0000 60000 T00331094 10039 20006 51008 =
2018-10-18 12:53 METAR KMLT 181653Z AUTO 31015G34KT 10SM FEW050 BKN060 OVC075 03/M09 A2995 RMK
                 AO2 PK WND 31034/1644 SLP152 T00331089 =
2018-10-18 11:53 METAR KMLT 181553Z AUTO 30019G34KT 10SM OVC060 03/M09 A2996 RMK AO2 PK WND
                 32037/1523 SLP153 T00281089 =

Support USWX by starting your Amazon purchase here.